Aviation Digital Data Service (ADDS)

Output produced by METARs form (2022 UTC 29 September 2016)
found at http://aviationweather.gov/adds/metars/
 
KPSM 291830Z 2919/3018 07012KT P6SM FEW040 FEW250 
     FM292200 04010KT P6SM OVC250 
     FM301200 07008KT P6SM OVC100